sensor_id;sensor_type;location;lat;lon;timestamp;pressure;altitude;pressure_sealevel;temperature;humidity
57791;BME280;43621;51.798;21.588;2024-01-30T00:02:20;101798.01;;;1.92;68.65
57791;BME280;43621;51.798;21.588;2024-01-30T00:06:21;101794.73;;;1.91;68.58
57791;BME280;43621;51.798;21.588;2024-01-30T00:10:24;101797.66;;;1.92;68.49
57791;BME280;43621;51.798;21.588;2024-01-30T00:14:25;101792.15;;;1.92;68.40
57791;BME280;43621;51.798;21.588;2024-01-30T00:18:27;101789.22;;;1.92;68.29
57791;BME280;43621;51.798;21.588;2024-01-30T00:22:28;101790.23;;;1.93;68.17
57791;BME280;43621;51.798;21.588;2024-01-30T00:26:31;101787.86;;;1.91;68.18
57791;BME280;43621;51.798;21.588;2024-01-30T00:30:33;101786.56;;;1.89;68.19
57791;BME280;43621;51.798;21.588;2024-01-30T00:34:34;101781.54;;;1.83;68.25
57791;BME280;43621;51.798;21.588;2024-01-30T00:38:37;101778.88;;;1.80;68.31
57791;BME280;43621;51.798;21.588;2024-01-30T00:42:38;101776.86;;;1.78;68.14
57791;BME280;43621;51.798;21.588;2024-01-30T00:46:40;101774.52;;;1.75;68.36
57791;BME280;43621;51.798;21.588;2024-01-30T00:50:42;101770.82;;;1.72;68.51
57791;BME280;43621;51.798;21.588;2024-01-30T00:54:43;101758.84;;;1.69;68.57
57791;BME280;43621;51.798;21.588;2024-01-30T00:58:45;101755.64;;;1.66;68.86
57791;BME280;43621;51.798;21.588;2024-01-30T01:02:46;101756.33;;;1.67;68.76
57791;BME280;43621;51.798;21.588;2024-01-30T01:06:48;101751.51;;;1.67;68.57
57791;BME280;43621;51.798;21.588;2024-01-30T01:10:50;101748.02;;;1.61;68.63
57791;BME280;43621;51.798;21.588;2024-01-30T01:14:52;101747.35;;;1.61;68.68
57791;BME280;43621;51.798;21.588;2024-01-30T01:18:53;101748.37;;;1.61;68.71
57791;BME280;43621;51.798;21.588;2024-01-30T01:22:55;101745.52;;;1.65;68.60
57791;BME280;43621;51.798;21.588;2024-01-30T01:27:00;101737.70;;;1.61;68.55
57791;BME280;43621;51.798;21.588;2024-01-30T01:31:02;101735.89;;;1.58;68.71
57791;BME280;43621;51.798;21.588;2024-01-30T01:35:06;101734.36;;;1.57;68.73
57791;BME280;43621;51.798;21.588;2024-01-30T01:39:08;101735.20;;;1.58;68.74
57791;BME280;43621;51.798;21.588;2024-01-30T01:43:10;101730.04;;;1.58;68.71
57791;BME280;43621;51.798;21.588;2024-01-30T01:47:11;101722.90;;;1.54;68.64
57791;BME280;43621;51.798;21.588;2024-01-30T01:51:13;101722.14;;;1.51;68.80
57791;BME280;43621;51.798;21.588;2024-01-30T01:55:16;101720.55;;;1.52;68.83
57791;BME280;43621;51.798;21.588;2024-01-30T01:59:23;101716.23;;;1.53;68.81
57791;BME280;43621;51.798;21.588;2024-01-30T02:03:25;101716.63;;;1.51;68.96
57791;BME280;43621;51.798;21.588;2024-01-30T02:07:30;101711.96;;;1.51;68.70
57791;BME280;43621;51.798;21.588;2024-01-30T02:11:32;101712.45;;;1.53;68.81
57791;BME280;43621;51.798;21.588;2024-01-30T02:15:34;101717.36;;;1.49;68.92
57791;BME280;43621;51.798;21.588;2024-01-30T02:19:35;101716.06;;;1.46;68.83
57791;BME280;43621;51.798;21.588;2024-01-30T02:23:37;101714.27;;;1.42;68.83
57791;BME280;43621;51.798;21.588;2024-01-30T02:27:41;101710.66;;;1.42;69.00
57791;BME280;43621;51.798;21.588;2024-01-30T02:31:42;101710.98;;;1.43;69.24
57791;BME280;43621;51.798;21.588;2024-01-30T02:35:44;101703.42;;;1.43;69.13
57791;BME280;43621;51.798;21.588;2024-01-30T02:39:46;101697.60;;;1.41;68.91
57791;BME280;43621;51.798;21.588;2024-01-30T02:43:47;101695.04;;;1.41;68.97
57791;BME280;43621;51.798;21.588;2024-01-30T02:47:49;101693.65;;;1.41;68.87
57791;BME280;43621;51.798;21.588;2024-01-30T02:51:52;101692.95;;;1.42;68.88
57791;BME280;43621;51.798;21.588;2024-01-30T02:55:54;101687.63;;;1.41;68.83
57791;BME280;43621;51.798;21.588;2024-01-30T02:59:55;101684.52;;;1.42;68.78
57791;BME280;43621;51.798;21.588;2024-01-30T03:03:57;101687.73;;;1.44;68.79
57791;BME280;43621;51.798;21.588;2024-01-30T03:07:58;101691.95;;;1.41;68.89
57791;BME280;43621;51.798;21.588;2024-01-30T03:12:01;101691.52;;;1.37;68.91
57791;BME280;43621;51.798;21.588;2024-01-30T03:16:03;101693.17;;;1.33;68.80
57791;BME280;43621;51.798;21.588;2024-01-30T03:20:05;101693.88;;;1.33;68.66
57791;BME280;43621;51.798;21.588;2024-01-30T03:24:07;101689.94;;;1.32;68.73
57791;BME280;43621;51.798;21.588;2024-01-30T03:28:10;101685.38;;;1.28;68.65
57791;BME280;43621;51.798;21.588;2024-01-30T03:32:11;101686.66;;;1.24;68.58
57791;BME280;43621;51.798;21.588;2024-01-30T03:36:15;101681.91;;;1.22;68.68
57791;BME280;43621;51.798;21.588;2024-01-30T03:40:17;101682.80;;;1.21;68.76
57791;BME280;43621;51.798;21.588;2024-01-30T03:44:18;101688.50;;;1.20;68.68
57791;BME280;43621;51.798;21.588;2024-01-30T03:48:21;101686.95;;;1.20;68.75
57791;BME280;43621;51.798;21.588;2024-01-30T03:52:22;101689.11;;;1.16;68.79
57791;BME280;43621;51.798;21.588;2024-01-30T03:56:24;101682.15;;;1.12;68.78
57791;BME280;43621;51.798;21.588;2024-01-30T04:00:27;101677.61;;;1.09;69.08
57791;BME280;43621;51.798;21.588;2024-01-30T04:04:28;101678.86;;;1.07;69.12
57791;BME280;43621;51.798;21.588;2024-01-30T04:08:30;101674.47;;;1.04;69.17
57791;BME280;43621;51.798;21.588;2024-01-30T04:12:31;101678.38;;;0.99;69.25
57791;BME280;43621;51.798;21.588;2024-01-30T04:16:33;101675.70;;;0.95;69.28
57791;BME280;43621;51.798;21.588;2024-01-30T04:20:35;101672.45;;;0.94;69.20
57791;BME280;43621;51.798;21.588;2024-01-30T04:24:37;101673.77;;;0.97;69.22
57791;BME280;43621;51.798;21.588;2024-01-30T04:28:38;101673.44;;;0.96;69.23
57791;BME280;43621;51.798;21.588;2024-01-30T04:32:40;101672.98;;;0.94;69.28
57791;BME280;43621;51.798;21.588;2024-01-30T04:36:44;101673.77;;;0.97;69.33
57791;BME280;43621;51.798;21.588;2024-01-30T04:40:46;101678.39;;;0.98;69.38
57791;BME280;43621;51.798;21.588;2024-01-30T04:44:49;101677.70;;;0.99;69.40
57791;BME280;43621;51.798;21.588;2024-01-30T04:48:50;101674.14;;;0.96;69.42
57791;BME280;43621;51.798;21.588;2024-01-30T04:52:52;101671.57;;;0.95;69.12
57791;BME280;43621;51.798;21.588;2024-01-30T04:56:54;101674.14;;;0.96;69.15
57791;BME280;43621;51.798;21.588;2024-01-30T05:00:55;101675.27;;;0.92;69.24
57791;BME280;43621;51.798;21.588;2024-01-30T05:04:57;101672.05;;;0.90;69.19
57791;BME280;43621;51.798;21.588;2024-01-30T05:08:59;101674.20;;;0.86;69.24
57791;BME280;43621;51.798;21.588;2024-01-30T05:13:01;101679.62;;;0.83;69.31
57791;BME280;43621;51.798;21.588;2024-01-30T05:17:02;101683.59;;;0.82;69.22
57791;BME280;43621;51.798;21.588;2024-01-30T05:21:05;101683.42;;;0.82;69.27
57791;BME280;43621;51.798;21.588;2024-01-30T05:25:07;101683.14;;;0.79;69.32
57791;BME280;43621;51.798;21.588;2024-01-30T05:29:09;101680.98;;;0.69;69.87
57791;BME280;43621;51.798;21.588;2024-01-30T05:33:11;101680.94;;;0.71;69.57
57791;BME280;43621;51.798;21.588;2024-01-30T05:37:13;101680.08;;;0.71;69.56
57791;BME280;43621;51.798;21.588;2024-01-30T05:41:18;101681.73;;;0.67;69.73
57791;BME280;43621;51.798;21.588;2024-01-30T05:45:20;101681.74;;;0.66;69.70
57791;BME280;43621;51.798;21.588;2024-01-30T05:49:21;101679.50;;;0.66;69.65
57791;BME280;43621;51.798;21.588;2024-01-30T05:53:23;101679.25;;;0.69;69.68
57791;BME280;43621;51.798;21.588;2024-01-30T05:57:25;101679.61;;;0.69;69.68
57791;BME280;43621;51.798;21.588;2024-01-30T06:01:27;101678.38;;;0.70;69.64
57791;BME280;43621;51.798;21.588;2024-01-30T06:05:28;101679.75;;;0.70;69.63
57791;BME280;43621;51.798;21.588;2024-01-30T06:09:30;101681.96;;;0.71;69.53
57791;BME280;43621;51.798;21.588;2024-01-30T06:13:31;101687.57;;;0.74;69.39
57791;BME280;43621;51.798;21.588;2024-01-30T06:17:34;101688.31;;;0.79;69.39
57791;BME280;43621;51.798;21.588;2024-01-30T06:21:35;101688.41;;;0.82;69.27
57791;BME280;43621;51.798;21.588;2024-01-30T06:25:38;101689.60;;;0.82;69.15
57791;BME280;43621;51.798;21.588;2024-01-30T06:29:40;101691.80;;;0.84;69.14
57791;BME280;43621;51.798;21.588;2024-01-30T06:33:42;101692.40;;;0.88;69.21
57791;BME280;43621;51.798;21.588;2024-01-30T06:37:43;101692.80;;;0.92;69.18
57791;BME280;43621;51.798;21.588;2024-01-30T06:41:45;101693.18;;;0.98;69.24
57791;BME280;43621;51.798;21.588;2024-01-30T06:45:48;101688.17;;;1.06;69.04
57791;BME280;43621;51.798;21.588;2024-01-30T06:49:49;101689.20;;;1.12;68.98
57791;BME280;43621;51.798;21.588;2024-01-30T06:53:51;101689.25;;;1.24;68.95
57791;BME280;43621;51.798;21.588;2024-01-30T06:57:53;101688.45;;;1.61;68.92
57791;BME280;43621;51.798;21.588;2024-01-30T07:01:55;101689.48;;;3.28;68.54
57791;BME280;43621;51.798;21.588;2024-01-30T07:05:56;101688.46;;;4.83;65.22
57791;BME280;43621;51.798;21.588;2024-01-30T07:09:58;101686.35;;;5.31;63.12
57791;BME280;43621;51.798;21.588;2024-01-30T07:14:00;101680.21;;;5.37;62.60
57791;BME280;43621;51.798;21.588;2024-01-30T07:18:02;101682.45;;;6.73;60.56
57791;BME280;43621;51.798;21.588;2024-01-30T07:22:04;101678.46;;;8.99;56.95
57791;BME280;43621;51.798;21.588;2024-01-30T07:26:05;101675.90;;;10.13;55.66
57791;BME280;43621;51.798;21.588;2024-01-30T07:30:08;101673.47;;;11.63;54.19
57791;BME280;43621;51.798;21.588;2024-01-30T07:34:09;101676.23;;;13.90;50.65
57791;BME280;43621;51.798;21.588;2024-01-30T07:38:12;101673.30;;;14.99;44.71
57791;BME280;43621;51.798;21.588;2024-01-30T07:42:13;101670.02;;;15.11;43.24
57791;BME280;43621;51.798;21.588;2024-01-30T07:46:15;101671.27;;;14.79;40.16
57791;BME280;43621;51.798;21.588;2024-01-30T07:50:17;101675.14;;;14.55;39.47
57791;BME280;43621;51.798;21.588;2024-01-30T07:54:18;101666.75;;;15.74;39.02
57791;BME280;43621;51.798;21.588;2024-01-30T07:58:20;101659.82;;;16.86;37.86
57791;BME280;43621;51.798;21.588;2024-01-30T08:02:22;101657.18;;;17.21;35.54
57791;BME280;43621;51.798;21.588;2024-01-30T08:06:23;101658.71;;;17.46;33.86
57791;BME280;43621;51.798;21.588;2024-01-30T08:10:25;101662.30;;;17.24;34.14
57791;BME280;43621;51.798;21.588;2024-01-30T08:14:27;101661.17;;;18.01;33.00
57791;BME280;43621;51.798;21.588;2024-01-30T08:18:29;101666.27;;;18.49;31.65
57791;BME280;43621;51.798;21.588;2024-01-30T08:22:31;101664.65;;;18.85;31.04
57791;BME280;43621;51.798;21.588;2024-01-30T08:26:33;101668.52;;;18.66;31.43
57791;BME280;43621;51.798;21.588;2024-01-30T08:30:35;101662.97;;;18.72;31.67
57791;BME280;43621;51.798;21.588;2024-01-30T08:34:37;101658.89;;;18.83;31.61
57791;BME280;43621;51.798;21.588;2024-01-30T08:38:38;101649.69;;;19.24;30.77
57791;BME280;43621;51.798;21.588;2024-01-30T08:42:40;101647.09;;;20.23;30.43
57791;BME280;43621;51.798;21.588;2024-01-30T08:46:42;101647.02;;;20.87;28.88
57791;BME280;43621;51.798;21.588;2024-01-30T08:50:43;101652.02;;;19.40;27.96
57791;BME280;43621;51.798;21.588;2024-01-30T08:54:45;101648.05;;;18.02;29.22
57791;BME280;43621;51.798;21.588;2024-01-30T08:58:47;101644.73;;;17.03;30.36
57791;BME280;43621;51.798;21.588;2024-01-30T09:02:48;101645.19;;;16.51;30.62
57791;BME280;43621;51.798;21.588;2024-01-30T09:06:50;101637.16;;;16.96;31.64
57791;BME280;43621;51.798;21.588;2024-01-30T09:10:52;101637.17;;;17.86;31.17
57791;BME280;43621;51.798;21.588;2024-01-30T09:14:53;101636.46;;;17.99;29.85
57791;BME280;43621;51.798;21.588;2024-01-30T09:18:56;101636.79;;;18.48;29.54
57791;BME280;43621;51.798;21.588;2024-01-30T09:22:58;101627.04;;;19.26;29.84
57791;BME280;43621;51.798;21.588;2024-01-30T09:27:00;101622.64;;;19.55;28.99
57791;BME280;43621;51.798;21.588;2024-01-30T09:31:01;101633.27;;;19.00;29.02
57791;BME280;43621;51.798;21.588;2024-01-30T09:35:04;101631.11;;;18.95;29.13
57791;BME280;43621;51.798;21.588;2024-01-30T09:39:06;101628.37;;;17.20;30.00
57791;BME280;43621;51.798;21.588;2024-01-30T09:43:13;101626.17;;;15.40;32.07
57791;BME280;43621;51.798;21.588;2024-01-30T09:47:18;101624.55;;;15.47;32.98
57791;BME280;43621;51.798;21.588;2024-01-30T09:51:20;101627.02;;;16.27;31.73
57791;BME280;43621;51.798;21.588;2024-01-30T09:55:23;101621.73;;;16.90;30.86
57791;BME280;43621;51.798;21.588;2024-01-30T09:59:25;101614.46;;;17.38;30.31
57791;BME280;43621;51.798;21.588;2024-01-30T10:03:27;101609.52;;;18.20;30.56
57791;BME280;43621;51.798;21.588;2024-01-30T10:07:29;101597.13;;;19.26;31.57
57791;BME280;43621;51.798;21.588;2024-01-30T10:11:32;101589.84;;;20.06;28.17
57791;BME280;43621;51.798;21.588;2024-01-30T10:15:33;101589.74;;;20.37;27.24
57791;BME280;43621;51.798;21.588;2024-01-30T10:19:38;101582.04;;;21.00;28.08
57791;BME280;43621;51.798;21.588;2024-01-30T10:23:39;101579.80;;;21.72;26.88
57791;BME280;43621;51.798;21.588;2024-01-30T10:27:41;101577.67;;;21.86;26.01
57791;BME280;43621;51.798;21.588;2024-01-30T10:31:43;101570.80;;;21.42;25.48
57791;BME280;43621;51.798;21.588;2024-01-30T10:35:45;101563.23;;;21.11;25.79
57791;BME280;43621;51.798;21.588;2024-01-30T10:39:47;101560.61;;;21.37;26.22
57791;BME280;43621;51.798;21.588;2024-01-30T10:43:58;101555.77;;;21.38;24.82
57791;BME280;43621;51.798;21.588;2024-01-30T10:48:05;101556.75;;;21.67;25.20
57791;BME280;43621;51.798;21.588;2024-01-30T10:52:08;101548.92;;;22.03;25.18
57791;BME280;43621;51.798;21.588;2024-01-30T10:56:11;101541.00;;;22.34;24.43
57791;BME280;43621;51.798;21.588;2024-01-30T11:00:14;101534.29;;;22.79;25.22
57791;BME280;43621;51.798;21.588;2024-01-30T11:04:17;101526.54;;;23.15;24.82
57791;BME280;43621;51.798;21.588;2024-01-30T11:08:23;101529.64;;;21.92;23.59
57791;BME280;43621;51.798;21.588;2024-01-30T11:12:26;101529.89;;;21.47;23.96
57791;BME280;43621;51.798;21.588;2024-01-30T11:16:32;101528.61;;;21.56;24.16
57791;BME280;43621;51.798;21.588;2024-01-30T11:20:34;101516.08;;;20.44;23.99
57791;BME280;43621;51.798;21.588;2024-01-30T11:24:39;101517.89;;;18.41;25.50
57791;BME280;43621;51.798;21.588;2024-01-30T11:28:42;101519.70;;;16.39;27.05
57791;BME280;43621;51.798;21.588;2024-01-30T11:32:44;101509.14;;;15.33;28.44
57791;BME280;43621;51.798;21.588;2024-01-30T11:36:50;101507.85;;;14.66;29.58
57791;BME280;43621;51.798;21.588;2024-01-30T11:40:54;101509.54;;;14.16;30.30
57791;BME280;43621;51.798;21.588;2024-01-30T11:45:02;101503.34;;;13.60;31.06
57791;BME280;43621;51.798;21.588;2024-01-30T11:49:04;101493.25;;;13.46;31.69
57791;BME280;43621;51.798;21.588;2024-01-30T11:53:06;101487.45;;;13.64;32.33
57791;BME280;43621;51.798;21.588;2024-01-30T11:57:08;101488.31;;;13.75;32.28
57791;BME280;43621;51.798;21.588;2024-01-30T12:01:11;101483.01;;;13.60;31.72
57791;BME280;43621;51.798;21.588;2024-01-30T12:05:12;101482.52;;;13.47;32.45
57791;BME280;43621;51.798;21.588;2024-01-30T12:09:14;101481.83;;;13.55;32.62
57791;BME280;43621;51.798;21.588;2024-01-30T12:13:16;101482.70;;;13.62;32.47
57791;BME280;43621;51.798;21.588;2024-01-30T12:17:31;101479.95;;;13.44;32.36
57791;BME280;43621;51.798;21.588;2024-01-30T12:21:34;101476.36;;;13.29;32.75
57791;BME280;43621;51.798;21.588;2024-01-30T12:25:36;101477.88;;;13.05;32.95
57791;BME280;43621;51.798;21.588;2024-01-30T12:29:42;101476.96;;;12.74;33.27
57791;BME280;43621;51.798;21.588;2024-01-30T12:33:43;101469.59;;;12.46;33.63
57791;BME280;43621;51.798;21.588;2024-01-30T12:37:46;101462.89;;;12.12;33.79
57791;BME280;43621;51.798;21.588;2024-01-30T12:41:47;101460.38;;;11.75;34.31
57791;BME280;43621;51.798;21.588;2024-01-30T12:45:49;101463.31;;;11.58;34.70
57791;BME280;43621;51.798;21.588;2024-01-30T12:49:51;101461.14;;;11.40;35.05
57791;BME280;43621;51.798;21.588;2024-01-30T12:53:56;101461.80;;;11.23;35.48
57791;BME280;43621;51.798;21.588;2024-01-30T12:57:57;101455.77;;;11.02;35.64
57791;BME280;43621;51.798;21.588;2024-01-30T13:02:00;101451.79;;;10.92;35.82
57791;BME280;43621;51.798;21.588;2024-01-30T13:06:02;101449.44;;;10.85;36.33
57791;BME280;43621;51.798;21.588;2024-01-30T13:10:04;101444.55;;;10.93;36.71
57791;BME280;43621;51.798;21.588;2024-01-30T13:14:06;101444.43;;;10.90;36.41
57791;BME280;43621;51.798;21.588;2024-01-30T13:18:08;101443.49;;;10.80;36.67
57791;BME280;43621;51.798;21.588;2024-01-30T13:22:10;101444.61;;;10.70;37.09
57791;BME280;43621;51.798;21.588;2024-01-30T13:26:11;101439.00;;;10.46;37.22
57791;BME280;43621;51.798;21.588;2024-01-30T13:30:13;101437.68;;;10.16;37.47
57791;BME280;43621;51.798;21.588;2024-01-30T13:34:15;101436.23;;;9.91;38.02
57791;BME280;43621;51.798;21.588;2024-01-30T13:38:17;101431.02;;;9.69;38.69
57791;BME280;43621;51.798;21.588;2024-01-30T13:42:19;101428.88;;;9.53;39.26
57791;BME280;43621;51.798;21.588;2024-01-30T13:46:20;101426.01;;;9.39;39.74
57791;BME280;43621;51.798;21.588;2024-01-30T13:50:22;101424.06;;;9.22;40.10
57791;BME280;43621;51.798;21.588;2024-01-30T13:54:24;101419.54;;;9.08;40.44
57791;BME280;43621;51.798;21.588;2024-01-30T13:58:25;101418.98;;;8.97;40.78
57791;BME280;43621;51.798;21.588;2024-01-30T14:02:27;101419.70;;;8.94;40.97
57791;BME280;43621;51.798;21.588;2024-01-30T14:06:29;101421.65;;;8.88;41.26
57791;BME280;43621;51.798;21.588;2024-01-30T14:10:31;101423.59;;;8.82;41.45
57791;BME280;43621;51.798;21.588;2024-01-30T14:14:32;101422.12;;;8.78;41.80
57791;BME280;43621;51.798;21.588;2024-01-30T14:18:34;101425.60;;;8.75;42.00
57791;BME280;43621;51.798;21.588;2024-01-30T14:22:36;101426.08;;;8.70;42.07
57791;BME280;43621;51.798;21.588;2024-01-30T14:26:38;101421.37;;;8.67;42.23
57791;BME280;43621;51.798;21.588;2024-01-30T14:30:40;101419.51;;;8.63;42.22
57791;BME280;43621;51.798;21.588;2024-01-30T14:34:42;101418.62;;;8.55;42.38
57791;BME280;43621;51.798;21.588;2024-01-30T14:38:43;101419.64;;;8.44;42.64
57791;BME280;43621;51.798;21.588;2024-01-30T14:42:46;101419.32;;;8.34;42.89
57791;BME280;43621;51.798;21.588;2024-01-30T14:46:49;101418.61;;;8.25;43.00
57791;BME280;43621;51.798;21.588;2024-01-30T14:50:50;101419.73;;;8.15;43.03
57791;BME280;43621;51.798;21.588;2024-01-30T14:54:52;101418.48;;;8.07;43.33
57791;BME280;43621;51.798;21.588;2024-01-30T14:58:54;101420.55;;;7.98;43.64
57791;BME280;43621;51.798;21.588;2024-01-30T15:02:55;101420.30;;;7.87;43.69
57791;BME280;43621;51.798;21.588;2024-01-30T15:06:57;101419.14;;;7.77;43.90
57791;BME280;43621;51.798;21.588;2024-01-30T15:10:59;101421.71;;;7.65;44.04
57791;BME280;43621;51.798;21.588;2024-01-30T15:15:01;101421.48;;;7.54;44.51
57791;BME280;43621;51.798;21.588;2024-01-30T15:19:02;101420.55;;;7.46;44.53
57791;BME280;43621;51.798;21.588;2024-01-30T15:23:06;101424.41;;;7.36;44.63
57791;BME280;43621;51.798;21.588;2024-01-30T15:27:07;101427.97;;;7.25;45.15
57791;BME280;43621;51.798;21.588;2024-01-30T15:31:09;101425.37;;;7.15;45.31
57791;BME280;43621;51.798;21.588;2024-01-30T15:35:11;101426.45;;;7.08;45.47
57791;BME280;43621;51.798;21.588;2024-01-30T15:39:12;101426.50;;;7.00;45.66
57791;BME280;43621;51.798;21.588;2024-01-30T15:43:16;101425.95;;;6.91;46.01
57791;BME280;43621;51.798;21.588;2024-01-30T15:47:18;101425.77;;;6.82;46.36
57791;BME280;43621;51.798;21.588;2024-01-30T15:51:19;101423.64;;;6.76;46.12
57791;BME280;43621;51.798;21.588;2024-01-30T15:55:21;101422.95;;;6.69;46.01
57791;BME280;43621;51.798;21.588;2024-01-30T15:59:22;101420.48;;;6.60;46.21
57791;BME280;43621;51.798;21.588;2024-01-30T16:03:24;101416.64;;;6.47;46.36
57791;BME280;43621;51.798;21.588;2024-01-30T16:07:26;101412.44;;;6.31;46.35
57791;BME280;43621;51.798;21.588;2024-01-30T16:11:27;101414.63;;;6.19;46.59
57791;BME280;43621;51.798;21.588;2024-01-30T16:15:29;101417.33;;;6.09;46.84
57791;BME280;43621;51.798;21.588;2024-01-30T16:19:31;101418.05;;;6.02;47.17
57791;BME280;43621;51.798;21.588;2024-01-30T16:23:34;101416.67;;;5.95;47.36
57791;BME280;43621;51.798;21.588;2024-01-30T16:27:35;101413.63;;;5.89;47.65
57791;BME280;43621;51.798;21.588;2024-01-30T16:31:37;101410.40;;;5.84;47.79
57791;BME280;43621;51.798;21.588;2024-01-30T16:35:39;101414.42;;;5.80;47.86
57791;BME280;43621;51.798;21.588;2024-01-30T16:39:42;101415.52;;;5.75;48.06
57791;BME280;43621;51.798;21.588;2024-01-30T16:43:44;101414.55;;;5.70;48.45
57791;BME280;43621;51.798;21.588;2024-01-30T16:47:46;101413.13;;;5.64;49.04
57791;BME280;43621;51.798;21.588;2024-01-30T16:51:47;101409.58;;;5.55;49.29
57791;BME280;43621;51.798;21.588;2024-01-30T16:55:49;101410.47;;;5.47;49.70
57791;BME280;43621;51.798;21.588;2024-01-30T16:59:50;101416.85;;;5.36;50.60
57791;BME280;43621;51.798;21.588;2024-01-30T17:03:52;101414.70;;;5.31;50.33
57791;BME280;43621;51.798;21.588;2024-01-30T17:07:54;101411.45;;;5.26;50.53
57791;BME280;43621;51.798;21.588;2024-01-30T17:11:55;101407.55;;;5.21;50.72
57791;BME280;43621;51.798;21.588;2024-01-30T17:15:57;101405.02;;;5.15;51.06
57791;BME280;43621;51.798;21.588;2024-01-30T17:19:58;101407.94;;;5.12;51.19
57791;BME280;43621;51.798;21.588;2024-01-30T17:24:00;101407.41;;;5.08;50.99
57791;BME280;43621;51.798;21.588;2024-01-30T17:28:02;101410.05;;;5.04;51.42
57791;BME280;43621;51.798;21.588;2024-01-30T17:32:04;101407.54;;;4.98;51.39
57791;BME280;43621;51.798;21.588;2024-01-30T17:36:06;101409.41;;;4.95;51.53
57791;BME280;43621;51.798;21.588;2024-01-30T17:40:08;101403.83;;;4.92;51.67
57791;BME280;43621;51.798;21.588;2024-01-30T17:44:10;101402.91;;;4.90;51.75
57791;BME280;43621;51.798;21.588;2024-01-30T17:48:12;101400.34;;;4.89;51.42
57791;BME280;43621;51.798;21.588;2024-01-30T17:52:14;101398.15;;;4.88;51.32
57791;BME280;43621;51.798;21.588;2024-01-30T17:56:17;101396.08;;;4.83;51.36
57791;BME280;43621;51.798;21.588;2024-01-30T18:00:19;101396.13;;;4.79;51.48
57791;BME280;43621;51.798;21.588;2024-01-30T18:04:21;101393.23;;;4.74;51.93
57791;BME280;43621;51.798;21.588;2024-01-30T18:08:23;101393.29;;;4.69;51.95
57791;BME280;43621;51.798;21.588;2024-01-30T18:12:25;101390.70;;;4.65;52.12
57791;BME280;43621;51.798;21.588;2024-01-30T18:16:27;101386.21;;;4.61;52.18
57791;BME280;43621;51.798;21.588;2024-01-30T18:20:28;101386.02;;;4.57;52.14
57791;BME280;43621;51.798;21.588;2024-01-30T18:24:30;101382.95;;;4.48;52.91
57791;BME280;43621;51.798;21.588;2024-01-30T18:28:31;101384.39;;;4.43;53.02
57791;BME280;43621;51.798;21.588;2024-01-30T18:32:33;101383.38;;;4.39;53.56
57791;BME280;43621;51.798;21.588;2024-01-30T18:36:34;101380.96;;;4.35;54.02
57791;BME280;43621;51.798;21.588;2024-01-30T18:40:38;101379.52;;;4.32;53.85
57791;BME280;43621;51.798;21.588;2024-01-30T18:44:39;101377.41;;;4.25;54.03
57791;BME280;43621;51.798;21.588;2024-01-30T18:48:41;101382.75;;;4.21;54.80
57791;BME280;43621;51.798;21.588;2024-01-30T18:52:43;101379.60;;;4.22;54.50
57791;BME280;43621;51.798;21.588;2024-01-30T18:56:46;101381.05;;;4.21;54.27
57791;BME280;43621;51.798;21.588;2024-01-30T19:00:48;101382.29;;;4.16;54.50
57791;BME280;43621;51.798;21.588;2024-01-30T19:04:50;101381.86;;;4.14;54.83
57791;BME280;43621;51.798;21.588;2024-01-30T19:08:53;101382.52;;;4.14;54.67
57791;BME280;43621;51.798;21.588;2024-01-30T19:12:55;101381.73;;;4.13;54.44
57791;BME280;43621;51.798;21.588;2024-01-30T19:16:56;101382.69;;;4.10;54.65
57791;BME280;43621;51.798;21.588;2024-01-30T19:20:58;101380.76;;;4.07;55.14
57791;BME280;43621;51.798;21.588;2024-01-30T19:25:00;101377.67;;;4.06;54.96
57791;BME280;43621;51.798;21.588;2024-01-30T19:29:06;101379.16;;;4.08;54.83
57791;BME280;43621;51.798;21.588;2024-01-30T19:33:07;101378.20;;;4.06;55.69
57791;BME280;43621;51.798;21.588;2024-01-30T19:37:09;101372.73;;;4.05;55.56
57791;BME280;43621;51.798;21.588;2024-01-30T19:41:11;101373.78;;;4.04;55.83
57791;BME280;43621;51.798;21.588;2024-01-30T19:45:13;101371.20;;;4.00;56.15
57791;BME280;43621;51.798;21.588;2024-01-30T19:49:16;101370.91;;;3.99;55.85
57791;BME280;43621;51.798;21.588;2024-01-30T19:53:17;101366.67;;;3.97;55.79
57791;BME280;43621;51.798;21.588;2024-01-30T19:57:19;101361.91;;;3.95;55.83
57791;BME280;43621;51.798;21.588;2024-01-30T20:01:21;101363.87;;;3.94;56.20
57791;BME280;43621;51.798;21.588;2024-01-30T20:05:23;101365.91;;;3.86;56.66
57791;BME280;43621;51.798;21.588;2024-01-30T20:09:24;101359.92;;;3.84;56.37
57791;BME280;43621;51.798;21.588;2024-01-30T20:13:26;101357.36;;;3.84;56.38
57791;BME280;43621;51.798;21.588;2024-01-30T20:17:27;101350.28;;;3.79;56.90
57791;BME280;43621;51.798;21.588;2024-01-30T20:21:29;101345.86;;;3.78;57.15
57791;BME280;43621;51.798;21.588;2024-01-30T20:25:31;101346.60;;;3.77;57.00
57791;BME280;43621;51.798;21.588;2024-01-30T20:29:32;101345.89;;;3.77;56.89
57791;BME280;43621;51.798;21.588;2024-01-30T20:33:34;101345.65;;;3.74;56.93
57791;BME280;43621;51.798;21.588;2024-01-30T20:37:37;101338.30;;;3.72;57.27
57791;BME280;43621;51.798;21.588;2024-01-30T20:41:39;101338.16;;;3.72;57.34
57791;BME280;43621;51.798;21.588;2024-01-30T20:45:41;101336.13;;;3.75;57.05
57791;BME280;43621;51.798;21.588;2024-01-30T20:49:42;101334.23;;;3.79;57.22
57791;BME280;43621;51.798;21.588;2024-01-30T20:53:44;101331.85;;;3.70;58.12
57791;BME280;43621;51.798;21.588;2024-01-30T20:57:46;101327.84;;;3.63;58.05
57791;BME280;43621;51.798;21.588;2024-01-30T21:01:47;101327.77;;;3.51;58.91